Terminal Aerodrome Forecast
Issued by NWS

Home | Current Version | Previous Version | Text Only | Print | Product List | Glossary On
Versions: 1 2 3 4 5 6 7 8 9 10 11 12 13 14 15 16 17
373
FTUS46 KMTR 170546
TAFOAK
TAF
KOAK 170546Z 1706/1812 04004KT P6SM SKC
      TEMPO 1709/1713 4SM BR BKN007
     FM171300 07004KT 3SM BR BKN007
     FM171800 14005KT 6SM HZ FEW010 SCT200
     FM172200 24005KT P6SM SCT200
     FM180300 03004KT P6SM BKN150=

USA.gov is the U.S. government's official web portal to all federal, state and local government web resources and services.